Bergville, Minnesota
Current Conditions -  °F | °C
As of 10:33 AM on Thursday 23 Oct 2014 (Local Time) from KFOZ Reporting Station
Broken Clouds Broken Clouds  
Wind Chill: 54°   Ceiling: 600
Heat Index: 54°   Visibility: 10mi
Dew Point: 52°   Wind: 9mph
Humidity: 94%   Direction: 180°S
Pressure: 29.92"   Gusts: NA
Location:  47.8312°N, 94.1459°W
Report Text: KFOZ 231533Z AUTO 18008KT 10SM BKN006 12/11 A2992 RMK AO2
Loading
Personal Weather Stations






























Interactive Weather Map
Tropical Storm Tracking
New forecast layout! Learn more

10-Day Weather Forecast

Advertisements
Track Severe Weather on mobile